Time;durP1;ratioP1;P1;durP2;ratioP2;P2;SDS_P1;SDS_P2;PMS_P1;PMS_P2;Temp;Humidity;BMP_temperature;BMP_pressure;BME280_temperature;BME280_humidity;BME280_pressure;Samples;Min_cycle;Max_cycle;Signal;HPM_P1;HPM_P2
2023/06/05 00:02:01;;;;;;;4.93;2.95;;;11.00;99.90;;;;;;4912477;29;20115;-41
2023/06/05 00:04:29;;;;;;;4.60;2.95;;;11.00;99.90;;;;;;4892823;29;20048;-40
2023/06/05 00:06:57;;;;;;;4.28;2.97;;;11.10;99.90;;;;;;4912313;29;20127;-41
2023/06/05 00:09:23;;;;;;;3.83;3.10;;;11.10;99.90;;;;;;4911344;29;20111;-41
2023/06/05 00:11:50;;;;;;;4.78;3.08;;;11.10;99.90;;;;;;4914646;29;20048;-40
2023/06/05 00:14:16;;;;;;;5.30;3.22;;;11.10;99.90;;;;;;4905477;29;20044;-40
2023/06/05 00:16:41;;;;;;;3.83;3.08;;;11.10;99.90;;;;;;4894047;29;20055;-41
2023/06/05 00:19:07;;;;;;;4.78;3.10;;;11.10;99.90;;;;;;4913243;29;20040;-41
2023/06/05 00:21:33;;;;;;;4.15;3.13;;;11.20;99.90;;;;;;4894221;29;20055;-40
2023/06/05 00:23:59;;;;;;;4.97;3.38;;;11.20;99.90;;;;;;4893043;29;20062;-40
2023/06/05 00:26:26;;;;;;;3.88;2.90;;;11.20;99.90;;;;;;4910170;29;20043;-41
2023/06/05 00:28:55;;;;;;;4.47;3.20;;;11.20;99.90;;;;;;4910550;29;20048;-40
2023/06/05 00:31:21;;;;;;;4.22;2.85;;;11.30;99.90;;;;;;4912669;29;20059;-40
2023/06/05 00:33:51;;;;;;;3.50;2.90;;;11.30;99.90;;;;;;4895904;29;20055;-40
2023/06/05 00:36:18;;;;;;;4.68;3.28;;;11.30;99.90;;;;;;4911403;29;20040;-40
2023/06/05 00:38:45;;;;;;;4.25;2.88;;;11.30;99.90;;;;;;4880318;29;20052;-41
2023/06/05 00:41:13;;;;;;;3.97;3.10;;;11.40;99.90;;;;;;4895535;29;20083;-41
2023/06/05 00:43:42;;;;;;;4.55;2.83;;;11.40;99.90;;;;;;4893160;29;20528;-41
2023/06/05 00:46:08;;;;;;;3.97;3.00;;;11.40;99.90;;;;;;4892417;29;20123;-41
2023/06/05 00:48:34;;;;;;;5.18;3.40;;;11.40;99.90;;;;;;4909227;29;20147;-41
2023/06/05 00:51:00;;;;;;;5.70;3.30;;;11.40;99.90;;;;;;4912001;29;20043;-41
2023/06/05 00:53:27;;;;;;;4.20;3.33;;;11.40;99.90;;;;;;4912122;29;20066;-41
2023/06/05 00:55:54;;;;;;;4.50;3.08;;;11.40;99.90;;;;;;4905055;29;20142;-41
2023/06/05 00:58:20;;;;;;;7.05;2.88;;;11.40;99.90;;;;;;4895768;29;20550;-41
2023/06/05 01:00:49;;;;;;;4.38;3.10;;;11.40;99.90;;;;;;4908166;29;20131;-41
2023/06/05 01:03:17;;;;;;;4.25;2.80;;;11.40;99.90;;;;;;4913492;29;20044;-40
2023/06/05 01:05:43;;;;;;;5.78;3.20;;;11.40;99.90;;;;;;4893829;29;20052;-41
2023/06/05 01:08:12;;;;;;;5.68;3.10;;;11.40;99.90;;;;;;4894647;29;20044;-41
2023/06/05 01:10:38;;;;;;;3.90;2.97;;;11.40;99.90;;;;;;4907747;29;20538;-41
2023/06/05 01:13:15;;;;;;;3.30;3.00;;;11.40;99.90;;;;;;4911103;29;20048;-40
2023/06/05 01:15:40;;;;;;;4.88;3.28;;;11.40;99.90;;;;;;4911432;29;20028;-41
2023/06/05 01:18:10;;;;;;;4.50;2.75;;;11.40;99.90;;;;;;4896975;29;20058;-41
2023/06/05 01:20:38;;;;;;;4.95;3.53;;;11.50;99.90;;;;;;4921006;29;20376;-41
2023/06/05 01:23:13;;;;;;;4.90;3.13;;;11.40;99.90;;;;;;4911119;29;20234;-41
2023/06/05 01:25:41;;;;;;;5.15;3.17;;;11.40;99.90;;;;;;4911045;29;20392;-40
2023/06/05 01:28:24;;;;;;;5.10;3.47;;;11.40;99.90;;;;;;4914860;29;20043;-41
2023/06/05 01:31:15;;;;;;;5.45;3.00;;;11.50;99.90;;;;;;4906838;29;20119;-41
2023/06/05 01:33:50;;;;;;;4.72;3.20;;;11.50;99.90;;;;;;4894716;29;20126;-40
2023/06/05 01:36:17;;;;;;;7.38;4.22;;;11.50;99.90;;;;;;4910558;29;20055;-41
2023/06/05 01:38:43;;;;;;;;;;;11.50;99.90;;;;;;4894157;29;20084;-41
2023/06/05 01:41:29;;;;;;;6.75;3.40;;;11.50;99.90;;;;;;4911791;29;20365;-41
2023/06/05 01:43:55;;;;;;;5.07;3.22;;;11.50;99.90;;;;;;4899805;29;20073;-41
2023/06/05 01:46:23;;;;;;;4.70;3.25;;;11.50;99.90;;;;;;4908171;29;20051;-41
2023/06/05 01:48:51;;;;;;;3.22;2.92;;;11.50;99.90;;;;;;4896872;29;20483;-41
2023/06/05 01:51:17;;;;;;;3.90;3.50;;;11.50;99.90;;;;;;4902069;29;20044;-40
2023/06/05 01:53:43;;;;;;;4.97;3.50;;;11.50;99.90;;;;;;4912397;29;20040;-41
2023/06/05 01:56:08;;;;;;;6.10;3.90;;;11.50;99.90;;;;;;4892861;29;20047;-41
2023/06/05 01:58:35;;;;;;;5.50;3.45;;;11.50;99.90;;;;;;4912346;29;20512;-40
2023/06/05 02:01:03;;;;;;;4.60;3.63;;;11.50;99.90;;;;;;4918908;29;20090;-40
2023/06/05 02:03:29;;;;;;;4.72;3.45;;;11.50;99.90;;;;;;4920620;29;20052;-41
2023/06/05 02:05:54;;;;;;;4.18;3.65;;;11.50;99.90;;;;;;4913539;29;20376;-41
2023/06/05 02:08:24;;;;;;;4.15;2.90;;;11.50;99.90;;;;;;4915374;29;20048;-41
2023/06/05 02:11:14;;;;;;;5.82;3.45;;;11.50;99.90;;;;;;4893497;29;20503;-40
2023/06/05 02:13:40;;;;;;;4.47;3.22;;;11.50;99.90;;;;;;4894559;29;20068;-41
2023/06/05 02:16:13;;;;;;;4.67;3.33;;;11.50;99.90;;;;;;4922005;29;20488;-41
2023/06/05 02:18:48;;;;;;;6.85;3.25;;;11.40;99.90;;;;;;4891636;29;20468;-41
2023/06/05 02:21:39;;;;;;;5.75;2.83;;;11.40;99.90;;;;;;4921531;29;20487;-41
2023/06/05 02:24:37;;;;;;;4.80;3.27;;;11.40;99.90;;;;;;4898813;29;20055;-41
2023/06/05 02:27:41;;;;;;;6.20;3.25;;;11.40;99.90;;;;;;4916952;29;20143;-41
2023/06/05 02:30:11;;;;;;;3.90;2.92;;;11.40;99.90;;;;;;4879730;29;20055;-40
2023/06/05 02:32:43;;;;;;;4.18;2.97;;;11.40;99.90;;;;;;4899448;29;20415;-41
2023/06/05 02:35:13;;;;;;;3.72;2.92;;;11.40;99.90;;;;;;4898045;29;20585;-40
2023/06/05 02:37:44;;;;;;;3.85;2.88;;;11.40;99.90;;;;;;4918997;29;20399;-41
2023/06/05 02:40:48;;;;;;;4.00;2.95;;;11.40;99.90;;;;;;4916653;29;20040;-41
2023/06/05 02:46:25;;;;;;;4.50;2.90;;;11.40;99.90;;;;;;4906501;29;20457;-94
2023/06/05 02:48:51;;;;;;;4.40;2.97;;;11.40;99.90;;;;;;4872697;29;20076;-94
2023/06/05 02:51:17;;;;;;;4.45;2.80;;;11.40;99.90;;;;;;4884231;29;20047;-93
2023/06/05 02:53:43;;;;;;;3.60;3.00;;;11.40;99.90;;;;;;4888085;29;20040;-94
2023/06/05 02:56:09;;;;;;;4.13;3.10;;;11.30;99.90;;;;;;4887563;29;20103;-94
2023/06/05 02:58:34;;;;;;;3.15;2.47;;;11.40;99.90;;;;;;4857529;29;20036;-95
2023/06/05 03:01:01;;;;;;;4.30;2.55;;;11.30;99.90;;;;;;4855450;29;20040;-95
2023/06/05 03:03:31;;;;;;;3.85;2.47;;;11.30;99.90;;;;;;4886399;29;20092;-94
2023/06/05 03:06:03;;;;;;;3.78;2.83;;;11.30;99.90;;;;;;4852357;29;20049;-94
2023/06/05 03:08:33;;;;;;;4.05;3.10;;;11.30;99.90;;;;;;4871951;29;20495;-95
2023/06/05 03:11:00;;;;;;;4.00;2.67;;;11.40;99.90;;;;;;4867620;29;20755;-95
2023/06/05 03:13:26;;;;;;;3.60;2.90;;;11.40;99.90;;;;;;4889981;29;20792;-95
2023/06/05 03:15:53;;;;;;;3.80;2.83;;;11.40;99.90;;;;;;4880715;29;20037;-94
2023/06/05 03:18:22;;;;;;;3.50;2.78;;;11.40;99.90;;;;;;4884706;29;20040;-94
2023/06/05 03:20:50;;;;;;;3.28;2.30;;;11.40;99.90;;;;;;4876885;29;20052;-94
2023/06/05 03:23:16;;;;;;;3.42;2.20;;;11.40;99.90;;;;;;4865521;29;20775;-95
2023/06/05 03:25:42;;;;;;;3.40;2.65;;;11.40;99.90;;;;;;4867257;29;20056;-95
2023/06/05 03:28:08;;;;;;;3.00;2.40;;;11.40;99.90;;;;;;4871741;29;20543;-94
2023/06/05 03:30:34;;;;;;;3.63;2.50;;;11.40;99.90;;;;;;4851816;29;20040;-95
2023/06/05 03:32:59;;;;;;;3.60;2.75;;;11.40;99.90;;;;;;4867744;29;20040;-93
2023/06/05 03:35:26;;;;;;;3.65;2.20;;;11.40;99.90;;;;;;4872151;29;20091;-95
2023/06/05 03:37:52;;;;;;;2.75;2.38;;;11.40;99.90;;;;;;4851980;29;20096;-94
2023/06/05 03:40:17;;;;;;;2.83;2.33;;;11.50;99.90;;;;;;4871121;29;20080;-94
2023/06/05 03:42:43;;;;;;;3.90;2.50;;;11.50;99.90;;;;;;4869878;29;20047;-94
2023/06/05 03:45:09;;;;;;;4.75;2.67;;;11.50;99.90;;;;;;4869036;29;20503;-94
2023/06/05 03:47:35;;;;;;;4.25;2.47;;;11.50;99.90;;;;;;4877495;29;20048;-95
2023/06/05 03:50:02;;;;;;;4.70;2.72;;;11.60;99.90;;;;;;4873458;29;20432;-94
2023/06/05 03:52:29;;;;;;;3.97;2.75;;;11.60;99.90;;;;;;4886435;29;20033;-94
2023/06/05 03:54:55;;;;;;;4.73;2.80;;;11.60;99.90;;;;;;4868144;29;20044;-94
2023/06/05 03:57:22;;;;;;;3.87;2.50;;;11.60;99.90;;;;;;4868623;29;20048;-94
2023/06/05 03:59:48;;;;;;;4.20;2.42;;;11.60;99.90;;;;;;4881831;29;20468;-94
2023/06/05 04:02:14;;;;;;;4.43;2.83;;;11.70;99.90;;;;;;4882667;29;20131;-94
2023/06/05 04:04:40;;;;;;;2.70;2.35;;;11.70;99.90;;;;;;4856247;29;20051;-95
2023/06/05 04:07:06;;;;;;;4.45;2.75;;;11.70;99.90;;;;;;4885284;29;20040;-94
2023/06/05 04:09:32;;;;;;;3.90;2.92;;;11.70;99.90;;;;;;4865369;29;20123;-94
2023/06/05 04:11:58;;;;;;;4.03;2.65;;;11.70;99.90;;;;;;4891936;29;20050;-95
2023/06/05 04:14:24;;;;;;;3.30;2.72;;;11.70;99.90;;;;;;4890144;29;20051;-95
2023/06/05 04:16:50;;;;;;;5.18;3.22;;;11.80;99.90;;;;;;4870360;29;20036;-94
2023/06/05 04:19:16;;;;;;;3.00;2.70;;;11.80;99.90;;;;;;4907080;29;20182;-94
2023/06/05 04:21:42;;;;;;;3.88;3.00;;;11.80;99.90;;;;;;4854412;29;20044;-94
2023/06/05 04:24:10;;;;;;;5.25;3.03;;;11.80;99.90;;;;;;4849932;29;20068;-94
2023/06/05 04:26:37;;;;;;;4.38;2.60;;;11.80;99.90;;;;;;4895715;29;20052;-95
2023/06/05 04:29:13;;;;;;;4.75;3.53;;;11.80;99.90;;;;;;4904116;29;20044;-95
2023/06/05 04:31:43;;;;;;;4.45;3.28;;;11.80;99.90;;;;;;4873556;29;20038;-95
2023/06/05 04:34:09;;;;;;;4.38;3.05;;;11.90;99.90;;;;;;4873609;29;20040;-94
2023/06/05 04:36:36;;;;;;;4.03;3.10;;;11.90;99.90;;;;;;4879952;29;20051;-94
2023/06/05 04:39:03;;;;;;;4.07;2.70;;;11.90;99.90;;;;;;4876181;29;20044;-94
2023/06/05 04:41:32;;;;;;;2.60;2.30;;;11.90;99.90;;;;;;4875044;29;20159;-94
2023/06/05 04:44:02;;;;;;;4.05;2.30;;;11.90;99.90;;;;;;4871017;29;20054;-93
2023/06/05 04:46:28;;;;;;;2.42;1.83;;;11.90;99.90;;;;;;4885800;29;20107;-93
2023/06/05 04:48:55;;;;;;;2.55;2.10;;;11.90;99.90;;;;;;4873944;29;20047;-94
2023/06/05 04:51:22;;;;;;;2.85;2.08;;;11.90;99.90;;;;;;4876523;29;20041;-95
2023/06/05 04:53:52;;;;;;;2.60;1.90;;;11.90;99.90;;;;;;4889392;29;20470;-94
2023/06/05 04:56:20;;;;;;;2.28;1.83;;;11.90;99.90;;;;;;4886990;29;20078;-95
2023/06/05 04:58:47;;;;;;;2.50;2.10;;;11.80;99.90;;;;;;4896000;29;20044;-93
2023/06/05 05:01:13;;;;;;;3.47;2.15;;;12.00;99.90;;;;;;4893140;29;20145;-94
2023/06/05 05:03:42;;;;;;;2.75;2.20;;;12.00;99.90;;;;;;4905820;29;20044;-93
2023/06/05 05:06:09;;;;;;;2.55;1.88;;;12.10;99.90;;;;;;4906391;29;20052;-92
2023/06/05 05:08:36;;;;;;;4.30;2.03;;;12.10;99.90;;;;;;4908260;29;20233;-93
2023/06/05 05:11:02;;;;;;;3.53;2.25;;;12.20;99.90;;;;;;4870384;29;20040;-93
2023/06/05 05:13:28;;;;;;;2.53;2.00;;;12.20;99.90;;;;;;4846022;29;20048;-94
2023/06/05 05:16:23;;;;;;;2.72;1.90;;;12.20;99.90;;;;;;4879701;29;20043;-95
2023/06/05 05:18:49;;;;;;;2.45;2.00;;;12.30;99.90;;;;;;4884316;29;20044;-96
2023/06/05 05:21:26;;;;;;;4.15;1.90;;;12.30;99.90;;;;;;4880476;29;20353;-96
2023/06/05 05:23:52;;;;;;;3.33;1.90;;;12.30;99.90;;;;;;4886631;29;20048;-95
2023/06/05 05:26:18;;;;;;;4.75;1.92;;;12.40;99.90;;;;;;4869997;29;20512;-94
2023/06/05 05:28:43;;;;;;;2.40;1.80;;;12.40;99.90;;;;;;4862619;29;20044;-93
2023/06/05 05:31:09;;;;;;;2.78;1.60;;;12.40;99.90;;;;;;4876443;29;20127;-94
2023/06/05 05:33:35;;;;;;;2.70;1.70;;;12.50;99.90;;;;;;4850442;29;20697;-94
2023/06/05 05:36:02;;;;;;;2.83;1.70;;;12.50;99.90;;;;;;4872991;29;20044;-93
2023/06/05 05:38:27;;;;;;;2.60;1.47;;;12.50;99.90;;;;;;4855115;29;20033;-84
2023/06/05 05:40:53;;;;;;;2.25;1.40;;;12.60;99.90;;;;;;4883913;29;20483;-93
2023/06/05 05:43:22;;;;;;;1.95;1.40;;;12.60;99.90;;;;;;4854669;29;20099;-93
2023/06/05 05:45:48;;;;;;;2.60;1.55;;;12.70;99.90;;;;;;4883120;29;20056;-93
2023/06/05 05:48:14;;;;;;;1.92;1.20;;;12.70;99.90;;;;;;4890747;29;20133;-94
2023/06/05 05:50:43;;;;;;;2.65;1.52;;;12.70;99.90;;;;;;4889200;29;20036;-95
2023/06/05 05:53:09;;;;;;;1.50;1.30;;;12.80;99.90;;;;;;4892873;29;20036;-93
2023/06/05 05:55:34;;;;;;;1.63;1.30;;;12.90;99.90;;;;;;4901866;29;20085;-95
2023/06/05 05:58:00;;;;;;;2.00;1.40;;;12.90;99.90;;;;;;4885619;29;20040;-92
2023/06/05 06:00:28;;;;;;;3.05;1.42;;;12.90;99.90;;;;;;4850458;29;20048;-93
2023/06/05 06:02:54;;;;;;;2.28;1.48;;;13.00;99.90;;;;;;4880105;29;20052;-94
2023/06/05 06:05:20;;;;;;;2.03;1.15;;;13.00;99.90;;;;;;4862646;29;20480;-94
2023/06/05 06:07:46;;;;;;;1.90;1.00;;;13.10;99.90;;;;;;4862642;29;20040;-94
2023/06/05 06:10:12;;;;;;;1.45;1.10;;;13.20;99.90;;;;;;4863499;29;20650;-94
2023/06/05 06:12:39;;;;;;;3.17;1.25;;;13.30;99.90;;;;;;4863594;29;20172;-93
2023/06/05 06:15:05;;;;;;;2.17;1.02;;;13.30;99.90;;;;;;4863014;29;20040;-95
2023/06/05 06:17:31;;;;;;;2.10;1.20;;;13.40;99.90;;;;;;4862429;29;20180;-95
2023/06/05 06:19:59;;;;;;;2.30;1.20;;;13.50;99.90;;;;;;4872254;29;20050;-94
2023/06/05 06:22:26;;;;;;;4.65;1.30;;;13.60;99.90;;;;;;4852752;29;20052;-93
2023/06/05 06:24:52;;;;;;;1.60;1.30;;;13.60;99.90;;;;;;4868748;29;20487;-93
2023/06/05 06:27:18;;;;;;;2.17;1.20;;;13.60;99.90;;;;;;4867637;29;20047;-94
2023/06/05 06:29:54;;;;;;;2.33;1.27;;;13.60;99.90;;;;;;4844548;29;20063;-93
2023/06/05 06:32:20;;;;;;;2.35;1.00;;;13.50;99.90;;;;;;4884168;29;20048;-91
2023/06/05 06:34:46;;;;;;;2.60;1.38;;;13.60;99.90;;;;;;4877156;29;20035;-94
2023/06/05 06:37:15;;;;;;;1.80;1.05;;;13.50;99.90;;;;;;4869314;29;20610;-93
2023/06/05 06:39:42;;;;;;;1.85;1.10;;;13.50;99.90;;;;;;4862944;29;20459;-93
2023/06/05 06:42:12;;;;;;;1.40;1.10;;;13.40;99.90;;;;;;4883973;29;20039;-93
2023/06/05 06:44:38;;;;;;;2.03;1.27;;;13.40;99.90;;;;;;4887343;29;20059;-93
2023/06/05 06:47:05;;;;;;;1.40;0.98;;;13.40;99.90;;;;;;4878887;29;20369;-92
2023/06/05 06:49:30;;;;;;;1.35;1.17;;;13.60;99.90;;;;;;4865814;29;20099;-94
2023/06/05 06:51:57;;;;;;;1.30;1.10;;;13.90;99.90;;;;;;4875699;29;20036;-93
2023/06/05 06:54:22;;;;;;;2.42;1.15;;;14.20;99.90;;;;;;4888247;29;20047;-92
2023/06/05 06:56:51;;;;;;;2.13;1.10;;;14.40;99.90;;;;;;4872570;29;20040;-94
2023/06/05 06:59:17;;;;;;;1.45;1.13;;;14.70;99.90;;;;;;4869978;29;20032;-93
2023/06/05 07:01:48;;;;;;;2.30;1.40;;;15.70;99.90;;;;;;4872632;29;20105;-93
2023/06/05 07:04:19;;;;;;;1.38;0.90;;;16.60;99.90;;;;;;4925404;29;20028;-93
2023/06/05 07:06:48;;;;;;;1.67;1.25;;;17.30;99.90;;;;;;4925930;29;20032;-92
2023/06/05 07:09:14;;;;;;;2.10;1.40;;;17.90;99.90;;;;;;4900246;29;20130;-93
2023/06/05 07:11:40;;;;;;;1.55;1.30;;;17.90;99.90;;;;;;4860954;29;20542;-92
2023/06/05 07:14:07;;;;;;;1.40;1.10;;;17.80;99.90;;;;;;4871358;29;20373;-93
2023/06/05 07:16:33;;;;;;;1.63;1.15;;;17.90;99.90;;;;;;4873039;29;20039;-93
2023/06/05 07:19:08;;;;;;;2.25;1.30;;;18.30;99.90;;;;;;4878503;29;20452;-93
2023/06/05 07:21:37;;;;;;;2.78;1.40;;;18.60;99.90;;;;;;4866876;29;20131;-92
2023/06/05 07:24:04;;;;;;;1.10;0.93;;;18.90;99.90;;;;;;4873835;29;20542;-92
2023/06/05 07:26:30;;;;;;;2.25;1.30;;;19.20;99.90;;;;;;4856217;29;20058;-92
2023/06/05 07:28:56;;;;;;;2.13;1.50;;;19.00;99.90;;;;;;4867589;29;20492;-93
2023/06/05 07:31:21;;;;;;;1.50;1.17;;;18.30;99.90;;;;;;4853104;29;20048;-92
2023/06/05 07:33:47;;;;;;;2.45;1.30;;;18.50;99.90;;;;;;4848865;29;20119;-94
2023/06/05 07:36:14;;;;;;;3.25;1.10;;;18.70;99.90;;;;;;4873883;29;20475;-94
2023/06/05 07:38:40;;;;;;;2.90;0.98;;;19.30;99.90;;;;;;4885713;29;20048;-94
2023/06/05 07:41:08;;;;;;;1.92;1.13;;;20.30;99.90;;;;;;4868984;29;20043;-91
2023/06/05 07:43:34;;;;;;;1.58;1.13;;;21.10;99.90;;;;;;4871032;29;20056;-91
2023/06/05 07:46:00;;;;;;;1.50;1.20;;;21.40;99.90;;;;;;4855209;29;20060;-92
2023/06/05 07:48:26;;;;;;;1.70;1.30;;;21.60;99.90;;;;;;4868316;29;20071;-92
2023/06/05 07:50:52;;;;;;;2.13;1.30;;;21.40;99.90;;;;;;4871980;29;20067;-92
2023/06/05 07:53:18;;;;;;;1.75;1.10;;;21.00;99.90;;;;;;4881153;29;20043;-93
2023/06/05 07:55:43;;;;;;;1.60;1.15;;;21.00;99.90;;;;;;4876478;29;20083;-92
2023/06/05 07:58:09;;;;;;;1.30;1.10;;;21.20;99.90;;;;;;4856752;29;20040;-93
2023/06/05 08:00:35;;;;;;;1.42;1.20;;;21.40;99.90;;;;;;4894186;29;20102;-92
2023/06/05 08:03:00;;;;;;;1.98;1.20;;;21.20;99.90;;;;;;4886407;29;20198;-93
2023/06/05 08:05:26;;;;;;;3.05;1.48;;;20.70;99.90;;;;;;4870337;29;20048;-92
2023/06/05 08:07:52;;;;;;;1.55;1.17;;;20.50;99.90;;;;;;4855988;29;20044;-92
2023/06/05 08:10:18;;;;;;;2.60;1.20;;;20.00;99.90;;;;;;4891227;29;20059;-93
2023/06/05 08:12:43;;;;;;;2.10;1.30;;;19.60;99.90;;;;;;4849718;29;20051;-92
2023/06/05 08:15:09;;;;;;;1.52;1.20;;;19.30;99.90;;;;;;4877395;29;20059;-93
2023/06/05 08:17:35;;;;;;;1.70;1.15;;;19.30;99.90;;;;;;4875272;29;20063;-94
2023/06/05 08:20:04;;;;;;;2.47;1.50;;;19.40;99.90;;;;;;4904319;29;20028;-93
2023/06/05 08:22:30;;;;;;;1.42;1.20;;;19.40;99.90;;;;;;4890500;29;20116;-93
2023/06/05 08:24:59;;;;;;;2.83;1.02;;;19.60;99.90;;;;;;4887087;29;20044;-94
2023/06/05 08:27:24;;;;;;;2.90;1.50;;;20.10;99.90;;;;;;4870713;29;20131;-92
2023/06/05 08:29:51;;;;;;;1.50;1.35;;;20.40;99.90;;;;;;4895134;29;20040;-92
2023/06/05 08:32:18;;;;;;;1.50;1.10;;;20.30;99.80;;;;;;4870188;29;20737;-93
2023/06/05 08:34:44;;;;;;;1.95;1.17;;;20.30;99.90;;;;;;4872834;29;20083;-91
2023/06/05 08:37:11;;;;;;;2.70;1.40;;;20.30;99.90;;;;;;4854908;29;20075;-93
2023/06/05 08:39:36;;;;;;;2.20;1.20;;;20.50;99.40;;;;;;4874587;29;20044;-93
2023/06/05 08:42:03;;;;;;;1.88;1.20;;;20.60;98.50;;;;;;4870128;29;20052;-93
2023/06/05 08:44:29;;;;;;;2.83;1.45;;;20.90;97.10;;;;;;4858297;29;20059;-92
2023/06/05 08:47:02;;;;;;;1.85;1.08;;;20.90;95.30;;;;;;4869193;29;20048;-92
2023/06/05 08:49:29;;;;;;;1.77;1.10;;;21.20;93.30;;;;;;4880682;29;20074;-93
2023/06/05 08:52:05;;;;;;;1.90;1.40;;;21.30;93.00;;;;;;4854430;29;20078;-93
2023/06/05 08:54:50;;;;;;;1.85;1.67;;;21.50;90.60;;;;;;4887902;29;20040;-92
2023/06/05 08:57:16;;;;;;;2.10;1.33;;;21.30;89.90;;;;;;4885787;29;20119;-91
2023/06/05 08:59:43;;;;;;;1.65;1.40;;;21.00;90.20;;;;;;4884542;29;20269;-92
2023/06/05 09:02:11;;;;;;;3.45;1.30;;;20.70;91.30;;;;;;4884318;29;20039;-92
2023/06/05 09:04:39;;;;;;;2.63;1.73;;;20.10;92.80;;;;;;4886866;29;20115;-91
2023/06/05 09:07:06;;;;;;;2.25;1.75;;;19.40;94.70;;;;;;4869155;29;20043;-92
2023/06/05 09:09:33;;;;;;;2.50;1.45;;;18.70;98.90;;;;;;4857955;29;20040;-91
2023/06/05 09:12:05;;;;;;;2.38;1.60;;;18.60;99.90;;;;;;4886620;29;20092;-92
2023/06/05 09:14:32;;;;;;;1.80;1.13;;;19.00;99.90;;;;;;4883808;29;20040;-92
2023/06/05 09:17:00;;;;;;;2.10;1.17;;;19.50;99.90;;;;;;4888963;29;20035;-92
2023/06/05 09:19:36;;;;;;;2.25;1.27;;;19.90;99.90;;;;;;4884125;29;20036;-92
2023/06/05 09:22:02;;;;;;;2.65;1.30;;;20.10;99.90;;;;;;4885684;29;20055;-92
2023/06/05 09:24:30;;;;;;;2.70;1.40;;;20.10;99.90;;;;;;4879350;29;20048;-92
2023/06/05 09:27:08;;;;;;;1.63;1.27;;;20.00;99.90;;;;;;4873232;29;20044;-92
2023/06/05 09:29:40;;;;;;;2.35;1.30;;;19.60;99.90;;;;;;4859208;29;20108;-93
2023/06/05 09:32:16;;;;;;;1.45;1.02;;;19.50;99.90;;;;;;4888059;29;20095;-91
2023/06/05 09:34:42;;;;;;;2.10;1.40;;;19.40;99.90;;;;;;4887272;29;20476;-92
2023/06/05 09:37:10;;;;;;;2.13;1.25;;;19.40;99.90;;;;;;4900973;29;20043;-90
2023/06/05 09:39:43;;;;;;;4.75;1.50;;;19.60;99.90;;;;;;4905439;29;20031;-91
2023/06/05 09:42:08;;;;;;;4.50;1.45;;;19.60;99.90;;;;;;4905340;29;20032;-92
2023/06/05 09:44:36;;;;;;;1.50;1.10;;;19.70;99.90;;;;;;4890532;29;20059;-92
2023/06/05 09:47:08;;;;;;;1.38;1.27;;;19.60;99.90;;;;;;4900613;29;20047;-92
2023/06/05 09:49:40;;;;;;;1.85;1.30;;;19.50;99.90;;;;;;4889271;29;20052;-93
2023/06/05 09:52:08;;;;;;;1.52;1.13;;;19.50;99.90;;;;;;4880403;29;20055;-91
2023/06/05 09:54:37;;;;;;;3.35;1.48;;;19.40;99.90;;;;;;4875751;29;20048;-91
2023/06/05 09:57:05;;;;;;;1.27;1.00;;;19.30;99.90;;;;;;4869567;29;20052;-91
2023/06/05 09:59:33;;;;;;;1.98;1.17;;;19.30;99.90;;;;;;4886666;29;20048;-92
2023/06/05 10:02:04;;;;;;;1.73;1.30;;;19.40;99.90;;;;;;4895333;29;20044;-92
2023/06/05 10:04:42;;;;;;;1.40;1.20;;;19.60;99.90;;;;;;4915467;29;20475;-92
2023/06/05 10:07:08;;;;;;;1.40;1.00;;;19.50;99.90;;;;;;4885912;29;20040;-92
2023/06/05 10:09:35;;;;;;;1.77;1.23;;;19.60;99.90;;;;;;4881650;29;20092;-92
2023/06/05 10:12:03;;;;;;;2.35;1.17;;;19.60;99.90;;;;;;4873002;29;20076;-90
2023/06/05 10:14:29;;;;;;;1.85;1.10;;;19.60;99.90;;;;;;4886604;29;20036;-95
2023/06/05 10:16:57;;;;;;;2.42;1.10;;;19.60;99.90;;;;;;4884286;29;20055;-96
2023/06/05 10:19:24;;;;;;;1.73;1.10;;;19.50;99.90;;;;;;4869060;29;20044;-95
2023/06/05 10:21:50;;;;;;;2.28;1.08;;;19.60;99.90;;;;;;4867885;29;20127;-96
2023/06/05 10:24:22;;;;;;;3.17;1.30;;;19.60;99.90;;;;;;4887867;29;20196;-96
2023/06/05 10:27:39;;;;;;;3.38;1.15;;;19.50;99.90;;;;;;4902207;29;20582;-95
2023/06/05 10:30:52;;;;;;;1.20;1.10;;;19.60;99.90;;;;;;4858355;29;20048;-95
2023/06/05 10:33:37;;;;;;;1.30;1.20;;;19.50;99.90;;;;;;4847434;29;20097;-95
2023/06/05 10:36:32;;;;;;;1.65;1.10;;;19.50;99.90;;;;;;4887606;29;20044;-95
2023/06/05 10:39:00;;;;;;;2.10;1.42;;;19.50;99.90;;;;;;4880341;29;20051;-94
2023/06/05 10:41:26;;;;;;;1.42;0.80;;;19.50;99.90;;;;;;4850050;29;20044;-94
2023/06/05 10:43:55;;;;;;;1.70;1.05;;;19.40;99.90;;;;;;4872335;29;20044;-96
2023/06/05 10:46:30;;;;;;;2.58;1.40;;;19.60;99.90;;;;;;4874673;29;20536;-95
2023/06/05 10:49:05;;;;;;;1.00;0.90;;;19.90;99.90;;;;;;4903525;29;20040;-96
2023/06/05 10:51:43;;;;;;;2.30;1.00;;;20.10;99.90;;;;;;4890030;29;20763;-95
2023/06/05 10:54:16;;;;;;;;;;;20.30;99.90;;;;;;4872429;29;20092;-94
2023/06/05 10:56:55;;;;;;;1.40;1.10;;;20.30;99.90;;;;;;4916868;29;19927;-94
2023/06/05 10:59:25;;;;;;;1.55;1.00;;;20.20;99.90;;;;;;4907607;29;20028;-95
2023/06/05 11:02:09;;;;;;;1.80;1.30;;;19.90;99.90;;;;;;4903911;29;20040;-95
2023/06/05 11:04:47;;;;;;;1.42;1.00;;;19.60;99.90;;;;;;4922836;29;20051;-94
2023/06/05 11:07:20;;;;;;;1.67;1.10;;;19.50;99.90;;;;;;4910967;29;20039;-94
2023/06/05 11:10:09;;;;;;;1.63;1.08;;;19.40;99.90;;;;;;4913246;29;20059;-95
2023/06/05 11:12:43;;;;;;;1.42;0.85;;;19.30;99.90;;;;;;4884303;29;20047;-95
2023/06/05 11:15:13;;;;;;;1.67;0.98;;;19.30;99.90;;;;;;4885356;29;20052;-95
2023/06/05 11:17:40;;;;;;;1.80;1.17;;;19.40;99.90;;;;;;4897526;29;20127;-95
2023/06/05 11:20:32;;;;;;;1.40;1.00;;;19.50;99.90;;;;;;4898651;29;20040;-95
2023/06/05 11:22:58;;;;;;;1.30;0.90;;;19.40;99.90;;;;;;4880330;29;20108;-95
2023/06/05 11:25:26;;;;;;;1.92;1.25;;;19.20;99.90;;;;;;4902677;29;20101;-95
2023/06/05 11:27:53;;;;;;;1.42;1.00;;;19.20;99.90;;;;;;4866747;29;20044;-95
2023/06/05 11:30:26;;;;;;;2.72;1.05;;;19.30;99.90;;;;;;4886245;29;20040;-94
2023/06/05 11:32:54;;;;;;;2.03;1.38;;;19.30;99.90;;;;;;4893962;29;20103;-95
2023/06/05 11:35:30;;;;;;;2.17;1.20;;;19.30;99.90;;;;;;4868915;29;20069;-94
2023/06/05 11:38:08;;;;;;;3.42;1.17;;;19.30;99.90;;;;;;4886678;29;20555;-96
2023/06/05 11:40:35;;;;;;;1.83;1.10;;;19.50;99.90;;;;;;4905790;29;20460;-95
2023/06/05 11:43:05;;;;;;;1.58;1.00;;;19.60;99.90;;;;;;4897703;29;20072;-94
2023/06/05 11:45:33;;;;;;;2.05;0.98;;;19.70;99.90;;;;;;4889544;29;20084;-94
2023/06/05 11:48:10;;;;;;;1.35;1.13;;;19.80;99.90;;;;;;4882204;29;20116;-94
2023/06/05 11:50:37;;;;;;;1.55;1.30;;;19.90;99.90;;;;;;4875106;29;20036;-95
2023/06/05 11:53:03;;;;;;;;;;;19.90;99.90;;;;;;4866795;29;20040;-95
2023/06/05 11:55:42;;;;;;;1.33;1.10;;;19.90;99.90;;;;;;4870649;29;19969;-95
2023/06/05 11:58:08;;;;;;;1.63;1.17;;;19.80;99.90;;;;;;4884222;29;20047;-95
2023/06/05 12:00:34;;;;;;;1.50;1.00;;;19.70;99.90;;;;;;4885003;29;20080;-94
2023/06/05 12:03:00;;;;;;;1.20;0.95;;;19.70;99.90;;;;;;4877161;29;20090;-96
2023/06/05 12:05:26;;;;;;;1.83;0.85;;;19.60;99.90;;;;;;4884582;29;20050;-95
2023/06/05 12:07:51;;;;;;;3.55;1.50;;;19.60;99.90;;;;;;4878861;29;20040;-95
2023/06/05 12:10:18;;;;;;;1.48;1.00;;;19.70;99.90;;;;;;4893897;29;20063;-94
2023/06/05 12:12:53;;;;;;;1.50;1.02;;;19.70;99.90;;;;;;4895928;29;20076;-94
2023/06/05 12:15:20;;;;;;;2.40;1.10;;;19.60;99.90;;;;;;4873919;29;20502;-94
2023/06/05 12:17:50;;;;;;;;;;;19.30;99.90;;;;;;4877141;29;20480;-95
2023/06/05 12:20:17;;;;;;;2.28;1.10;;;19.10;99.90;;;;;;4892613;29;19919;-94
2023/06/05 12:22:43;;;;;;;1.50;1.10;;;19.00;99.90;;;;;;4878804;29;20051;-95
2023/06/05 12:25:19;;;;;;;1.70;1.30;;;18.90;99.90;;;;;;4922002;29;20032;-94
2023/06/05 12:27:45;;;;;;;1.95;1.10;;;18.80;99.90;;;;;;4908459;29;20480;-92
2023/06/05 12:30:12;;;;;;;2.00;1.10;;;18.90;99.90;;;;;;4906195;29;20039;-93
2023/06/05 12:32:39;;;;;;;2.03;1.23;;;18.90;99.90;;;;;;4905284;29;20032;-91
2023/06/05 12:35:06;;;;;;;2.13;1.17;;;18.80;99.90;;;;;;4882891;29;20044;-91
2023/06/05 12:37:37;;;;;;;2.65;1.30;;;18.70;99.90;;;;;;4871771;29;20475;-92
2023/06/05 12:40:10;;;;;;;2.75;1.20;;;18.60;99.90;;;;;;4881595;29;20043;-92
2023/06/05 12:42:37;;;;;;;1.95;1.27;;;18.40;99.90;;;;;;4883490;29;20055;-93
2023/06/05 12:45:07;;;;;;;1.70;1.40;;;18.30;99.90;;;;;;4882757;29;20147;-94
2023/06/05 12:47:37;;;;;;;1.58;1.13;;;18.20;99.90;;;;;;4874730;29;20044;-93
2023/06/05 12:50:05;;;;;;;2.92;1.98;;;18.00;99.90;;;;;;4894357;29;20076;-92
2023/06/05 12:52:31;;;;;;;2.22;1.27;;;17.90;99.90;;;;;;4865168;29;20040;-96
2023/06/05 12:54:57;;;;;;;2.25;1.15;;;17.90;99.90;;;;;;4887914;29;20044;-96
2023/06/05 12:57:23;;;;;;;2.42;1.65;;;17.90;99.90;;;;;;4882658;29;20098;-95
2023/06/05 12:59:51;;;;;;;2.80;1.25;;;17.90;99.90;;;;;;4880233;29;20036;-95
2023/06/05 13:02:17;;;;;;;1.88;1.42;;;17.80;99.90;;;;;;4884652;29;20076;-95